Time;durP1;ratioP1;P1;durP2;ratioP2;P2;SDS_P1;SDS_P2;PMS_P1;PMS_P2;Temp;Humidity;BMP_temperature;BMP_pressure;BME280_temperature;BME280_humidity;BME280_pressure;Samples;Min_cycle;Max_cycle;Signal;HPM_P1;HPM_P2
2024/01/05 00:03:41;;;;;;;14.07;3.90;;;;;;;;;;20967063;28;20761;-70
2024/01/05 00:16:04;;;;;;;10.63;3.70;;;;;;;;;;20944807;28;20582;-71
2024/01/05 00:26:06;;;;;;;9.97;3.27;;;;;;;;;;20934437;28;20216;-71
2024/01/05 00:36:09;;;;;;;9.60;2.80;;;9.50;99.90;;;;;;20936179;28;20267;-71
2024/01/05 00:46:11;;;;;;;6.23;2.47;;;;;;;;;;20937770;28;20208;-71
2024/01/05 00:56:13;;;;;;;6.57;2.70;;;;;;;;;;20934199;28;20643;-70
2024/01/05 01:06:15;;;;;;;8.27;2.80;;;;;;;;;;20933371;28;20207;-70
2024/01/05 01:16:17;;;;;;;5.87;2.67;;;;;;;;;;20935202;28;20217;-71
2024/01/05 01:26:19;;;;;;;9.70;2.63;;;;;;;;;;20883180;28;20295;-70
2024/01/05 01:36:21;;;;;;;7.10;2.83;;;;;;;;;;20876632;28;20212;-71
2024/01/05 01:46:24;;;;;;;9.40;2.80;;;;;;;;;;20877978;28;20205;-70
2024/01/05 01:56:26;;;;;;;8.70;2.73;;;;;;;;;;20845071;28;20218;-70
2024/01/05 02:06:28;;;;;;;12.07;2.80;;;8.10;99.90;;;;;;20838316;28;20265;-71
2024/01/05 02:16:30;;;;;;;6.13;2.50;;;;;;;;;;20837953;28;20283;-70
2024/01/05 02:26:32;;;;;;;8.83;2.80;;;;;;;;;;20836832;28;20222;-71
2024/01/05 02:45:45;;;;;;;8.93;2.87;;;;;;;;;;21152713;27;20493;-69
2024/01/05 03:03:35;;;;;;;9.80;2.20;;;;;;;;;;21496419;27;21127;-71
2024/01/05 03:13:38;;;;;;;8.50;2.50;;;;;;;;;;21408242;27;20709;-69
2024/01/05 03:23:40;;;;;;;8.27;2.30;;;;;;;;;;21407415;27;20200;-70
2024/01/05 03:33:43;;;;;;;8.03;3.00;;;;;;;;;;21406959;27;20207;-69
2024/01/05 03:43:46;;;;;;;8.63;2.87;;;;;;;;;;21405882;27;20295;-69
2024/01/05 03:53:48;;;;;;;6.77;2.70;;;;;;;;;;21404700;27;20204;-69
2024/01/05 04:03:50;;;;;;;7.07;2.50;;;;;;;;;;21404887;27;20638;-68
2024/01/05 04:13:52;;;;;;;10.30;2.80;;;;;;;;;;21352200;27;20634;-69
2024/01/05 04:23:55;;;;;;;9.63;4.00;;;;;;;;;;21331151;27;20633;-68
2024/01/05 04:33:57;;;;;;;7.90;2.87;;;;;;;;;;21305695;27;20675;-68
2024/01/05 04:44:00;;;;;;;7.23;3.60;;;;;;;;;;21257614;27;20232;-68
2024/01/05 04:54:03;;;;;;;9.57;2.50;;;;;;;;;;21302671;27;20346;-69
2024/01/05 05:04:05;;;;;;;6.00;3.40;;;;;;;;;;21342285;27;20565;-68
2024/01/05 05:14:08;;;;;;;7.10;2.93;;;;;;;;;;21340972;27;20596;-69
2024/01/05 05:24:11;;;;;;;8.80;2.93;;;;;;;;;;21339107;27;20226;-69
2024/01/05 05:34:13;;;;;;;6.93;3.00;;;;;;;;;;21256706;27;20239;-69
2024/01/05 05:44:15;;;;;;;6.17;2.47;;;;;;;;;;21252659;27;20203;-69
2024/01/05 05:54:18;;;;;;;8.10;2.30;;;;;;;;;;21251708;27;20398;-70
2024/01/05 06:04:20;;;;;;;6.23;2.57;;;;;;;;;;21251497;27;20220;-69
2024/01/05 06:14:22;;;;;;;4.90;2.90;;;;;;;;;;21250334;27;20285;-69
2024/01/05 06:24:24;;;;;;;7.83;2.53;;;;;;;;;;21298885;27;20292;-69
2024/01/05 06:34:27;;;;;;;7.23;3.00;;;;;;;;;;21334872;27;20729;-69
2024/01/05 06:44:29;;;;;;;6.83;3.57;;;;;;;;;;21333950;27;20288;-69
2024/01/05 06:54:31;;;;;;;9.47;2.93;;;;;;;;;;21333395;27;20238;-69
2024/01/05 07:04:33;;;;;;;6.00;2.93;;;;;;;;;;21333597;27;20209;-70
2024/01/05 07:14:35;;;;;;;8.13;3.53;;;;;;;;;;21314250;27;20229;-69
2024/01/05 07:24:40;;;;;;;5.53;3.00;;;;;;;;;;21302469;27;20296;-70
2024/01/05 07:34:43;;;;;;;7.73;3.17;;;7.90;99.90;;;;;;21266797;27;20242;-70
2024/01/05 07:44:45;;;;;;;7.90;3.10;;;;;;;;;;21315883;27;20201;-70
2024/01/05 07:54:48;;;;;;;8.27;2.97;;;;;;;;;;21331000;27;20236;-70
2024/01/05 08:04:50;;;;;;;7.47;2.80;;;;;;;;;;21346823;27;20299;-70
2024/01/05 08:14:52;;;;;;;11.43;3.57;;;;;;;;;;21330179;27;20232;-70
2024/01/05 08:24:54;;;;;;;8.53;2.90;;;;;;;;;;21308233;27;20212;-69
2024/01/05 08:34:57;;;;;;;9.53;3.20;;;;;;;;;;21306812;27;20695;-70
2024/01/05 08:44:59;;;;;;;7.47;3.20;;;;;;;;;;21313472;27;20205;-70
2024/01/05 08:55:04;;;;;;;8.87;3.50;;;;;;;;;;21306309;27;20344;-71
2024/01/05 09:05:06;;;;;;;7.90;3.13;;;;;;;;;;21340612;27;20208;-69
2024/01/05 09:15:09;;;;;;;9.73;3.50;;;;;;;;;;21340185;27;20224;-69
2024/01/05 09:25:11;;;;;;;10.50;4.13;;;;;;;;;;21339423;27;20401;-68
2024/01/05 09:35:14;;;;;;;9.23;3.87;;;;;;;;;;21308736;27;20240;-69
2024/01/05 09:45:21;;;;;;;4.80;2.40;;;11.80;99.90;;;;;;21305329;27;20200;-68
2024/01/05 09:55:24;;;;;;;6.30;2.17;;;;;;;;;;21326491;27;20652;-68
2024/01/05 10:05:26;;;;;;;4.67;1.67;;;;;;;;;;21319009;27;20679;-68
2024/01/05 10:15:28;;;;;;;4.37;1.80;;;;;;;;;;21335726;27;20253;-68
2024/01/05 10:25:36;;;;;;;4.73;1.80;;;10.00;96.70;;;;;;21335077;27;20326;-68
2024/01/05 10:35:38;;;;;;;6.57;2.00;;;;;;;;;;21334710;27;20686;-68
2024/01/05 10:45:41;;;;;;;4.50;1.90;;;10.80;96.20;;;;;;21333491;27;20686;-68
2024/01/05 10:55:46;;;;;;;4.77;1.90;;;13.40;97.00;;;;;;21292607;27;20604;-69
2024/01/05 11:05:47;;;;;;;6.13;2.03;;;10.80;95.20;;;;;;21302584;27;20291;-68
2024/01/05 11:16:27;;;;;;;5.87;2.07;;;11.00;94.90;;;;;;21293028;27;20236;-69
2024/01/05 11:30:50;;;;;;;5.10;1.83;;;;;;;;;;21095489;28;20576;-67
2024/01/05 11:40:52;;;;;;;7.43;1.80;;;;;;;;;;21005850;28;20222;-63
2024/01/05 11:50:57;;;;;;;3.37;1.70;;;11.10;94.30;;;;;;20989102;28;20234;-69
2024/01/05 12:01:00;;;;;;;4.33;1.83;;;11.20;93.90;;;;;;21022918;28;20199;-73
2024/01/05 12:11:05;;;;;;;4.77;1.80;;;11.20;93.80;;;;;;20996767;28;20298;-68
2024/01/05 12:21:07;;;;;;;7.67;1.73;;;;;;;;;;21019412;28;20232;-69
2024/01/05 12:38:44;;;;;;;4.07;2.20;;;;;;;;;;21022734;28;20567;-67
2024/01/05 12:48:46;;;;;;;4.00;2.03;;;;;;;;;;20992863;28;20239;-64
2024/01/05 12:58:49;;;;;;;4.90;1.80;;;;;;;;;;20982075;28;20776;-66
2024/01/05 13:08:51;;;;;;;3.97;1.80;;;;;;;;;;20979481;28;20225;-67
2024/01/05 13:18:53;;;;;;;3.43;1.60;;;;;;;;;;20968254;28;20229;-74
2024/01/05 13:34:54;;;;;;;3.10;1.60;;;;;;;;;;20981278;28;20581;-66
2024/01/05 13:44:58;;;;;;;5.83;2.10;;;;;;;;;;21005480;28;20268;-66
2024/01/05 13:55:00;;;;;;;5.67;2.20;;;;;;;;;;21003153;28;20244;-65
2024/01/05 14:05:04;;;;;;;4.53;2.07;;;;;;;;;;21028655;28;20256;-63
2024/01/05 14:15:06;;;;;;;4.37;2.27;;;;;;;;;;21021054;28;20203;-66
2024/01/05 14:25:08;;;;;;;4.97;2.13;;;;;;;;;;21009899;28;20619;-66
2024/01/05 14:35:11;;;;;;;4.10;1.90;;;;;;;;;;21025901;28;20712;-66
2024/01/05 14:45:13;;;;;;;5.10;2.10;;;;;;;;;;20976481;28;20207;-65
2024/01/05 14:55:15;;;;;;;4.37;1.90;;;;;;;;;;20969115;28;20260;-66
2024/01/05 15:05:17;;;;;;;4.20;2.10;;;;;;;;;;20959630;28;20219;-66
2024/01/05 15:15:20;;;;;;;5.47;2.00;;;;;;;;;;20953449;28;20559;-66
2024/01/05 15:25:21;;;;;;;3.33;1.97;;;10.50;92.00;;;;;;20968011;28;20644;-65
2024/01/05 15:35:24;;;;;;;8.80;2.00;;;;;;;;;;20968899;28;20290;-64
2024/01/05 15:45:28;;;;;;;4.73;1.83;;;;;;;;;;20967911;28;20227;-65
2024/01/05 15:56:46;;;;;;;7.70;2.00;;;;;;;;;;21021549;28;20519;-70
2024/01/05 16:06:49;;;;;;;3.93;2.20;;;;;;;;;;21031431;28;20206;-73
2024/01/05 16:16:51;;;;;;;5.03;2.73;;;;;;;;;;21016315;28;20650;-72
2024/01/05 16:26:54;;;;;;;6.33;3.17;;;;;;;;;;20972284;28;20205;-71
2024/01/05 16:36:58;;;;;;;9.43;3.37;;;;;;;;;;21013598;28;20203;-71
2024/01/05 16:47:01;;;;;;;5.07;2.70;;;;;;;;;;21007841;28;20206;-71
2024/01/05 16:57:03;;;;;;;5.07;2.80;;;;;;;;;;21088388;28;20214;-71
2024/01/05 17:07:05;;;;;;;10.97;4.73;;;;;;;;;;21052597;28;20661;-70
2024/01/05 17:17:08;;;;;;;10.20;4.30;;;;;;;;;;20988666;28;20204;-70
2024/01/05 17:27:15;;;;;;;10.33;5.20;;;;;;;;;;20975600;28;20236;-73
2024/01/05 17:37:18;;;;;;;12.33;5.27;;;;;;;;;;20957807;28;20208;-69
2024/01/05 17:47:21;;;;;;;6.77;3.90;;;;;;;;;;20934857;28;20242;-69
2024/01/05 17:57:23;;;;;;;13.40;5.73;;;;;;;;;;20944379;28;20205;-67
2024/01/05 18:07:27;;;;;;;11.77;6.37;;;;;;;;;;20959921;28;20324;-68
2024/01/05 18:17:29;;;;;;;14.80;6.20;;;;;;;;;;20955012;28;20208;-68
2024/01/05 18:27:31;;;;;;;21.43;11.47;;;;;;;;;;20956752;28;20263;-69
2024/01/05 18:37:33;;;;;;;21.53;10.13;;;;;;;;;;20955947;28;20195;-68
2024/01/05 18:47:36;;;;;;;16.63;8.03;;;;;;;;;;20987425;28;20232;-66
2024/01/05 18:57:38;;;;;;;16.17;8.90;;;;;;;;;;20970233;28;20582;-69
2024/01/05 19:07:40;;;;;;;14.03;7.80;;;;;;;;;;20997158;28;20226;-71
2024/01/05 19:17:43;;;;;;;11.43;6.70;;;;;;;;;;20996886;28;20264;-71
2024/01/05 19:27:48;;;;;;;7.37;4.27;;;;;;;;;;20933433;28;20235;-73
2024/01/05 19:37:51;;;;;;;7.80;3.83;;;;;;;;;;20910130;28;20215;-73
2024/01/05 19:47:53;;;;;;;6.47;2.87;;;;;;;;;;20909454;28;20289;-74
2024/01/05 19:57:55;;;;;;;8.00;4.30;;;;;;;;;;20909201;28;20237;-71
2024/01/05 20:07:58;;;;;;;16.93;7.33;;;;;;;;;;20908901;28;20228;-72
2024/01/05 20:18:03;;;;;;;14.27;5.27;;;;;;;;;;20908831;28;20211;-71
2024/01/05 20:28:06;;;;;;;12.43;7.37;;;;;;;;;;20952801;28;20238;-70
2024/01/05 20:38:08;;;;;;;28.37;14.93;;;;;;;;;;20997745;28;20204;-72
2024/01/05 20:48:10;;;;;;;20.13;10.63;;;;;;;;;;21005501;28;20234;-72
2024/01/05 20:58:13;;;;;;;23.60;12.73;;;;;;;;;;21004700;28;20233;-72
2024/01/05 21:08:15;;;;;;;22.93;12.97;;;;;;;;;;21004207;28;20309;-71
2024/01/05 21:18:17;;;;;;;29.53;14.13;;;;;;;;;;21003674;28;20302;-71
2024/01/05 21:28:20;;;;;;;24.43;11.67;;;;;;;;;;20938230;28;20595;-70
2024/01/05 21:38:22;;;;;;;16.03;8.67;;;;;;;;;;20919042;28;20302;-72
2024/01/05 21:48:24;;;;;;;15.10;8.13;;;;;;;;;;20918264;28;20236;-71
2024/01/05 21:58:28;;;;;;;18.83;8.10;;;;;;;;;;20917696;28;20246;-70
2024/01/05 22:08:30;;;;;;;14.77;8.37;;;;;;;;;;20898910;28;20702;-73
2024/01/05 22:18:36;;;;;;;19.67;9.07;;;;;;;;;;20916387;28;20697;-71
2024/01/05 22:28:39;;;;;;;15.13;7.93;;;;;;;;;;20964297;28;20266;-72
2024/01/05 22:43:08;;;;;;;21.07;8.30;;;;;;;;;;21065471;28;20559;-70
2024/01/05 22:53:10;;;;;;;22.40;9.40;;;;;;;;;;21064707;28;20297;-71
2024/01/05 23:03:13;;;;;;;17.47;8.80;;;;;;;;;;21064476;28;20218;-72
2024/01/05 23:13:15;;;;;;;16.30;8.37;;;;;;;;;;21061161;28;20206;-70
2024/01/05 23:23:17;;;;;;;16.63;8.50;;;;;;;;;;21062206;28;20218;-70
2024/01/05 23:33:19;;;;;;;18.53;8.43;;;;;;;;;;21062117;28;20210;-70
2024/01/05 23:43:22;;;;;;;18.07;9.53;;;;;;;;;;21062158;28;20647;-70
2024/01/05 23:53:24;;;;;;;19.63;9.43;;;;;;;;;;21012697;28;20209;-70
